Aviosuperficie "San Mauro"

IT-0372 · Friuli Venezia Giulia, 意大利

罗盘
风向 的 风向 的 风向 到 风向 060° Aviosuperficie "San Mauro" 9/27
风: 3 kt, 1 beaufort

3 kt

2 kt
改变
0 1.000 2.000 3.000 4.000 5.000
未检测到零云
METAR LIPQ 291820Z AUTO 06003KT 040V100 9999 NCD 05/M01 Q1017

METAR Aviosuperficie "San Mauro" - IT-0372

Aviosuperficie "San Mauro"是,意大利中的小机场。 该机场有2条跑道: 9/27 和 10/28. 该领域的国际民航组织标志是IT-0372.

这份报告是针对2022年11月29日 19:20, 当地时间在Trieste–Friuli Venezia Giulia Airport进行的。

机场观察

风向为060°,速度为3 kt。 风向在040°和100°之间变化。

可见度为10 km 或者更多。

有未检测到零云。 没有观察到天花板。

温度为5 °C,阵风为2 °C。 露点为-1 °C,相对湿度为66%。 海平面上的气压为1017 hPa (QNH)。

白天

今天,太阳从07:25升起,在16:23降落。 这适用于Aviosuperficie "San Mauro",世界夏令时可能有所不同。 当地时间与世界标准时间之间的时差为+1 小时。 当前,没有夏令时有效。

公司介绍

我们没有关于这个机场的公司信息。

体会

到Vliegles.nl去找飞行课程,跳伞和其他飞行体验。 浏览页面,了解Aviosuperficie "San Mauro"附近所有可用的活动。 你也可以使用搜索功能来寻找你所在地附近的特定飞行课程、跳伞或其他飞行体验。

跑道

Id 标题 侧风 逆风 侧风 %
9/27 090°-270° 2 kt 3 kt 50 %
10/28 100°-280° 2 kt 2 kt 64 %

逆风成分最大的方向会被突出显示,并用于横风计算。 这并不一定意味着这个方向在使用。

乌云

- NCD 未检测到零云

温度 & 天气

温度 5 °C
露点 -1 °C
相对湿度 66%
风寒 2 °C
Kp-index 0 (0-9)

白天

日出
07:24 (11:45)
中午
11:54
日落
16:24

小工具

你想在你的网站上有一个关于Aviosuperficie "San Mauro"的当前航空天气(METAR)的小部件吗?

显示HTML代码

我们和第三方通过cookies跟踪您在我们网站上的互联网行为。如果你继续,我们认为你同意我们的饼干政策